createdAt,value
2019-03-28T00:02:06.155Z,87.34
2019-03-28T00:04:37.895Z,87.35
2019-03-28T00:07:09.702Z,87.42
2019-03-28T00:09:41.233Z,87.44
2019-03-28T00:12:13.119Z,87.49
2019-03-28T00:14:44.677Z,87.49
2019-03-28T00:17:16.203Z,87.45
2019-03-28T00:19:48.072Z,87.43
2019-03-28T00:22:27.116Z,87.43
2019-03-28T00:25:15.265Z,87.41
2019-03-28T00:27:46.895Z,87.41
2019-03-28T00:30:19.610Z,87.43
2019-03-28T00:32:51.228Z,87.39
2019-03-28T00:35:22.892Z,87.41
2019-03-28T00:37:54.443Z,87.46
2019-03-28T00:40:26.309Z,87.44
2019-03-28T00:42:57.801Z,87.45
2019-03-28T00:45:29.449Z,87.41
2019-03-28T00:48:01.446Z,87.44
2019-03-28T00:50:33.291Z,87.45
2019-03-28T00:53:04.877Z,87.45
2019-03-28T00:55:37.234Z,87.44
2019-03-28T00:58:09.125Z,87.40
2019-03-28T01:00:40.800Z,87.36
2019-03-28T01:03:12.690Z,87.30
2019-03-28T01:05:44.344Z,87.21
2019-03-28T01:08:16.209Z,87.15
2019-03-28T01:10:47.861Z,87.13
2019-03-28T01:13:19.729Z,87.07
2019-03-28T01:15:51.377Z,87.01
2019-03-28T01:18:23.036Z,87.01
2019-03-28T01:20:54.505Z,87.02
2019-03-28T01:23:26.455Z,87.03
2019-03-28T01:25:58.844Z,87.05
2019-03-28T01:28:30.692Z,87.02
2019-03-28T01:31:17.917Z,87.04
2019-03-28T09:50:25.576Z,65.24
2019-03-28T09:52:56.992Z,65.54
2019-03-28T09:55:28.784Z,65.42
2019-03-28T09:58:00.441Z,65.63
2019-03-28T10:00:32.966Z,66.58
2019-03-28T10:03:04.751Z,66.33
2019-03-28T10:05:37.949Z,65.97
2019-03-28T10:08:09.228Z,66.04
2019-03-28T10:10:40.874Z,64.76
2019-03-28T10:13:12.300Z,65.06
2019-03-28T10:15:44.090Z,64.96
2019-03-28T10:18:15.748Z,65.30
2019-03-28T10:20:47.377Z,65.68
2019-03-28T10:23:20.131Z,66.09
2019-03-28T10:25:51.606Z,65.38
2019-03-28T10:28:23.161Z,66.18
2019-03-28T10:30:54.719Z,66.44
2019-03-28T10:33:26.200Z,65.94
2019-03-28T10:35:57.755Z,66.42
2019-03-28T10:38:29.424Z,66.37
2019-03-28T10:41:00.943Z,65.89
2019-03-28T10:43:33.745Z,66.15
2019-03-28T10:46:05.583Z,65.29
2019-03-28T10:48:37.272Z,65.59
2019-03-28T10:51:08.817Z,66.43
2019-03-28T10:53:40.477Z,65.74
2019-03-28T10:56:21.495Z,66.32
2019-03-28T10:58:46.151Z,66.20
2019-03-28T11:01:31.261Z,65.28
2019-03-28T11:03:50.667Z,64.41
2019-03-28T11:06:22.336Z,65.35
2019-03-28T11:08:53.910Z,65.10
2019-03-28T11:11:25.235Z,64.56
2019-03-28T11:13:56.888Z,64.72
2019-03-28T11:16:29.384Z,64.65
2019-03-28T11:19:00.948Z,64.67
2019-03-28T11:21:34.338Z,64.71
2019-03-28T11:24:05.572Z,64.53
2019-03-28T11:26:37.153Z,65.54
2019-03-28T11:29:08.925Z,64.13
2019-03-28T11:31:46.723Z,64.16
2019-03-28T11:34:14.682Z,63.74
2019-03-28T11:36:46.196Z,64.01
2019-03-28T11:39:17.799Z,64.22
2019-03-28T11:41:50.583Z,64.89
2019-03-28T11:44:23.368Z,63.35
2019-03-28T11:46:54.827Z,63.54
2019-03-28T11:49:27.329Z,63.00
2019-03-28T11:51:58.963Z,63.52
2019-03-28T11:54:30.412Z,63.11
2019-03-28T11:57:02.169Z,62.91
2019-03-28T11:59:33.402Z,62.29
2019-03-28T12:02:19.201Z,62.28
2019-03-28T12:04:38.835Z,62.02
2019-03-28T12:07:10.339Z,61.57
2019-03-28T12:09:41.791Z,60.19
2019-03-28T12:12:13.244Z,61.93
2019-03-28T12:14:44.803Z,62.00
2019-03-28T12:17:16.124Z,62.77
2019-03-28T12:19:47.615Z,61.79
2019-03-28T12:22:19.379Z,60.97
2019-03-28T12:24:51.131Z,61.28
2019-03-28T12:27:22.573Z,60.90
2019-03-28T12:29:54.114Z,60.99
2019-03-28T12:32:25.895Z,61.28
2019-03-28T12:34:57.337Z,62.26
2019-03-28T12:37:29.101Z,60.75
2019-03-28T12:40:00.739Z,61.58
2019-03-28T12:42:32.317Z,59.93
2019-03-28T12:45:05.106Z,58.84
2019-03-28T12:47:42.387Z,59.55
2019-03-28T12:50:10.065Z,58.97
2019-03-28T12:52:41.613Z,58.39
2019-03-28T12:55:14.290Z,58.05
2019-03-28T12:57:48.393Z,58.26
2019-03-28T13:00:21.985Z,57.16
2019-03-28T13:02:53.771Z,56.61
2019-03-28T13:05:25.238Z,57.15
2019-03-28T13:07:56.575Z,57.01
2019-03-28T13:10:29.867Z,56.56
2019-03-28T13:13:01.639Z,55.64
2019-03-28T13:15:33.187Z,56.51
2019-03-28T13:18:04.531Z,56.16
2019-03-28T13:20:36.066Z,55.44
2019-03-28T13:23:07.850Z,55.69
2019-03-28T13:25:39.397Z,54.70
2019-03-28T13:28:10.858Z,54.76
2019-03-28T13:30:43.819Z,54.77
2019-03-28T13:33:15.302Z,54.77
2019-03-28T13:35:46.637Z,54.82
2019-03-28T13:38:18.193Z,52.93
2019-03-28T13:40:49.758Z,52.63
2019-03-28T13:43:21.495Z,53.04
2019-03-28T13:45:52.754Z,52.17
2019-03-28T13:48:24.192Z,51.48
2019-03-28T13:50:55.670Z,50.93
2019-03-28T13:53:38.669Z,51.15
2019-03-28T13:56:00.415Z,50.19
2019-03-28T13:58:32.073Z,53.83
2019-03-28T14:01:03.731Z,56.00
2019-03-28T14:03:35.196Z,56.11
2019-03-28T14:06:07.036Z,58.46
2019-03-28T14:08:38.901Z,59.79
2019-03-28T14:11:10.576Z,60.67
2019-03-28T14:13:42.518Z,61.24
2019-03-28T14:16:14.093Z,62.64
2019-03-28T14:18:45.956Z,65.14
2019-03-28T14:21:17.523Z,66.61
2019-03-28T14:23:49.256Z,68.04
2019-03-28T14:26:20.722Z,70.15
2019-03-28T14:28:52.258Z,72.30
2019-03-28T14:31:23.936Z,73.03
2019-03-28T14:33:56.407Z,73.64
2019-03-28T14:36:27.756Z,74.18
2019-03-28T14:38:59.298Z,75.80
2019-03-28T14:41:30.750Z,76.79
2019-03-28T14:44:02.541Z,77.07
2019-03-28T14:46:34.298Z,77.54
2019-03-28T14:49:05.950Z,77.22
2019-03-28T14:51:37.477Z,77.25
2019-03-28T14:54:09.150Z,77.06
2019-03-28T14:56:40.705Z,76.88
2019-03-28T14:59:12.247Z,77.04
2019-03-28T15:01:43.951Z,76.79
2019-03-28T15:04:15.363Z,76.35
2019-03-28T15:06:46.811Z,76.26
2019-03-28T15:09:18.370Z,76.16
2019-03-28T15:11:50.249Z,75.90
2019-03-28T15:14:21.910Z,75.50
2019-03-28T15:16:53.566Z,75.12
2019-03-28T15:19:25.211Z,74.96
2019-03-28T15:21:56.668Z,74.53
2019-03-28T15:24:28.817Z,74.59
2019-03-28T15:27:00.259Z,74.51
2019-03-28T15:29:31.959Z,74.34
2019-03-28T15:32:03.599Z,74.00
2019-03-28T15:34:35.479Z,73.83
2019-03-28T15:37:07.449Z,71.86
2019-03-28T15:39:39.035Z,71.66
2019-03-28T15:42:10.756Z,70.38
2019-03-28T15:44:42.516Z,68.58
2019-03-28T15:47:14.059Z,67.59
2019-03-28T15:49:45.920Z,66.30
2019-03-28T15:52:18.515Z,66.48
2019-03-28T15:54:50.561Z,67.79
2019-03-28T15:57:23.035Z,68.26
2019-03-28T15:59:54.508Z,68.80
2019-03-28T16:02:25.939Z,68.37
2019-03-28T16:04:57.311Z,68.80
2019-03-28T16:07:29.511Z,68.98
2019-03-28T16:10:02.350Z,69.32
2019-03-28T16:12:34.140Z,69.69
2019-03-28T16:15:08.536Z,70.18
2019-03-28T16:17:39.985Z,70.72
2019-03-28T16:20:11.453Z,71.46
2019-03-28T16:22:43.200Z,72.05
2019-03-28T16:25:14.756Z,72.62
2019-03-28T16:27:46.235Z,73.29
2019-03-28T16:30:20.751Z,73.97
2019-03-28T16:32:53.259Z,74.19
2019-03-28T16:35:24.664Z,74.19
2019-03-28T16:37:56.335Z,74.53
2019-03-28T16:40:27.981Z,74.97
2019-03-28T16:42:59.842Z,75.44
2019-03-28T16:45:31.714Z,75.90
2019-03-28T16:48:03.362Z,76.30
2019-03-28T16:50:35.034Z,76.64
2019-03-28T16:53:06.793Z,76.97
2019-03-28T16:55:38.634Z,77.22
2019-03-28T16:58:10.320Z,77.49
2019-03-28T17:00:41.858Z,77.70
2019-03-28T17:03:13.419Z,77.95
2019-03-28T17:05:47.115Z,78.15
2019-03-28T17:08:18.367Z,78.44
2019-03-28T17:10:50.858Z,78.72
2019-03-28T17:13:22.613Z,78.99
2019-03-28T17:15:54.173Z,79.15
2019-03-28T17:18:25.921Z,79.31
2019-03-28T17:20:57.574Z,79.47
2019-03-28T17:23:29.430Z,79.66
2019-03-28T17:26:01.089Z,79.84
2019-03-28T17:28:32.656Z,79.98
2019-03-28T17:31:05.436Z,80.05
2019-03-28T17:33:37.311Z,80.17
2019-03-28T17:36:09.072Z,80.21
2019-03-28T17:38:40.813Z,80.29
2019-03-28T17:41:12.498Z,80.27
2019-03-28T17:43:44.238Z,80.31
2019-03-28T17:46:16.204Z,80.43
2019-03-28T17:48:47.757Z,80.62
2019-03-28T17:51:19.915Z,80.81
2019-03-28T17:53:51.698Z,81.02
2019-03-28T17:56:23.444Z,81.24
2019-03-28T17:58:55.185Z,81.50
2019-03-28T18:01:26.945Z,81.60
2019-03-28T18:03:58.416Z,81.61
2019-03-28T18:06:39.584Z,81.58
2019-03-28T18:09:13.507Z,81.43
2019-03-28T18:11:45.448Z,81.25
2019-03-28T18:14:16.918Z,81.07
2019-03-28T18:16:48.684Z,80.95
2019-03-28T18:19:21.773Z,80.92
2019-03-28T18:22:03.462Z,80.93
2019-03-28T18:24:30.185Z,80.98
2019-03-28T18:27:00.123Z,81.10
2019-03-28T18:29:31.861Z,81.21
2019-03-28T18:32:04.050Z,81.24
2019-03-28T18:34:35.909Z,81.27
2019-03-28T18:37:07.586Z,81.40
2019-03-28T18:39:41.990Z,81.51
2019-03-28T18:42:13.451Z,81.58
2019-03-28T18:44:45.111Z,81.63
2019-03-28T18:47:17.870Z,81.68
2019-03-28T18:49:49.747Z,81.74
2019-03-28T18:52:21.610Z,81.85
2019-03-28T18:54:53.470Z,81.89
2019-03-28T18:57:25.117Z,81.96
2019-03-28T18:59:57.072Z,82.06
2019-03-28T19:02:28.749Z,82.16
2019-03-28T19:05:03.156Z,82.21
2019-03-28T19:07:35.103Z,82.25
2019-03-28T19:10:07.515Z,82.25
2019-03-28T19:12:39.175Z,82.18
2019-03-28T19:15:11.354Z,82.13
2019-03-28T19:17:42.986Z,82.11
2019-03-28T19:20:16.400Z,82.10
2019-03-28T19:22:50.319Z,82.11
2019-03-28T19:25:21.963Z,82.07
2019-03-28T19:27:53.831Z,81.95
2019-03-28T19:30:32.151Z,81.90
2019-03-28T19:33:06.894Z,81.92
2019-03-28T19:35:37.504Z,81.97
2019-03-28T19:38:09.590Z,82.06
2019-03-28T19:40:43.634Z,82.17
2019-03-28T19:43:21.079Z,82.27
2019-03-28T19:45:48.131Z,82.37
2019-03-28T19:48:19.870Z,82.52
2019-03-28T19:50:51.211Z,82.61
2019-03-28T19:53:22.875Z,82.71
2019-03-28T19:55:54.973Z,82.78
2019-03-28T19:58:26.704Z,82.86
2019-03-28T20:00:58.466Z,82.93
2019-03-28T20:03:32.635Z,82.96
2019-03-28T20:06:04.250Z,82.99
2019-03-28T20:08:35.903Z,82.99
2019-03-28T20:11:07.602Z,82.92
2019-03-28T20:13:39.507Z,82.88
2019-03-28T20:16:11.247Z,82.79
2019-03-28T20:18:43.327Z,82.65
2019-03-28T20:21:15.293Z,82.50
2019-03-28T20:23:47.073Z,82.42
2019-03-28T20:26:21.415Z,82.38
2019-03-28T20:28:53.367Z,82.31
2019-03-28T20:31:25.192Z,82.20
2019-03-28T20:33:56.765Z,82.11
2019-03-28T20:36:37.758Z,81.93
2019-03-28T20:39:04.351Z,81.74
2019-03-28T20:41:35.436Z,81.62
2019-03-28T20:44:07.192Z,81.59
2019-03-28T20:46:40.929Z,81.55
2019-03-28T20:49:13.361Z,81.52
2019-03-28T20:51:44.922Z,81.51
2019-03-28T20:54:17.000Z,81.53
2019-03-28T20:56:48.845Z,81.63
2019-03-28T20:59:20.770Z,81.78
2019-03-28T21:01:52.460Z,81.84
2019-03-28T21:04:31.290Z,81.86
2019-03-28T21:06:57.297Z,81.89
2019-03-28T21:09:29.194Z,81.90
2019-03-28T21:12:01.138Z,81.79
2019-03-28T21:14:33.581Z,81.58
2019-03-28T21:17:05.683Z,81.45
2019-03-28T21:19:37.678Z,81.35
2019-03-28T21:22:09.895Z,81.34
2019-03-28T21:24:41.561Z,81.42
2019-03-28T21:27:30.057Z,81.54
2019-03-28T21:30:01.794Z,81.65
2019-03-28T21:32:33.646Z,81.78
2019-03-28T21:35:07.914Z,81.88
2019-03-28T21:37:40.446Z,81.99
2019-03-28T21:40:12.899Z,82.15
2019-03-28T21:42:44.780Z,82.24
2019-03-28T21:45:16.418Z,82.33
2019-03-28T21:47:50.271Z,82.42
2019-03-28T21:50:23.126Z,82.46
2019-03-28T21:52:54.785Z,82.50
2019-03-28T21:55:26.650Z,82.58
2019-03-28T21:57:58.305Z,82.61
2019-03-28T22:00:30.170Z,82.62
2019-03-28T22:03:01.498Z,82.62
2019-03-28T22:05:33.266Z,82.60
2019-03-28T22:08:04.788Z,82.59
2019-03-28T22:10:36.591Z,82.58
2019-03-28T22:13:08.256Z,82.60
2019-03-28T22:15:39.904Z,82.63
2019-03-28T22:18:11.768Z,82.68
2019-03-28T22:20:43.856Z,82.64
2019-03-28T22:23:15.475Z,82.62
2019-03-28T22:25:47.146Z,82.67
2019-03-28T22:28:18.788Z,82.74
2019-03-28T22:30:50.880Z,82.84
2019-03-28T22:33:22.312Z,82.90
2019-03-28T22:35:54.200Z,82.93
2019-03-28T22:38:25.524Z,82.97
2019-03-28T22:40:57.297Z,82.98
2019-03-28T22:43:28.856Z,83.02
2019-03-28T22:46:00.609Z,83.05
2019-03-28T22:48:32.367Z,83.08
2019-03-28T22:51:03.835Z,83.08
2019-03-28T22:53:35.596Z,83.12
2019-03-28T22:56:07.020Z,83.18
2019-03-28T22:58:38.598Z,83.28
2019-03-28T23:01:10.930Z,83.37
2019-03-28T23:03:42.627Z,83.34
2019-03-28T23:06:14.484Z,83.26
2019-03-28T23:08:46.145Z,83.15
2019-03-28T23:11:17.576Z,83.09
2019-03-28T23:13:49.458Z,83.04
2019-03-28T23:16:22.448Z,82.98
2019-03-28T23:18:54.103Z,82.93
2019-03-28T23:21:25.992Z,82.86
2019-03-28T23:23:57.726Z,82.74
2019-03-28T23:26:29.386Z,82.62
2019-03-28T23:29:01.021Z,82.50
2019-03-28T23:31:32.493Z,82.42
2019-03-28T23:34:04.351Z,82.33
2019-03-28T23:36:36.013Z,82.25
2019-03-28T23:39:07.978Z,82.17
2019-03-28T23:41:39.819Z,82.08
2019-03-28T23:44:11.706Z,81.99
2019-03-28T23:46:43.262Z,81.91
2019-03-28T23:49:15.130Z,81.91
2019-03-28T23:51:46.777Z,81.93
2019-03-28T23:54:18.321Z,81.92
2019-03-28T23:56:49.886Z,81.97
2019-03-28T23:59:22.447Z,81.99
